createdAt,value
2017-06-14T00:01:46.388Z,18.60
2017-06-14T00:04:13.457Z,18.60
2017-06-14T00:06:39.772Z,18.60
2017-06-14T00:09:06.844Z,18.60
2017-06-14T00:11:33.153Z,18.60
2017-06-14T00:13:59.502Z,18.60
2017-06-14T00:16:25.835Z,18.60
2017-06-14T00:18:52.177Z,18.50
2017-06-14T00:21:18.486Z,18.50
2017-06-14T00:23:44.805Z,18.50
2017-06-14T00:26:11.881Z,18.50
2017-06-14T00:28:38.180Z,18.50
2017-06-14T00:31:05.262Z,18.50
2017-06-14T00:33:31.584Z,18.50
2017-06-14T00:35:57.921Z,18.40
2017-06-14T00:38:24.239Z,18.40
2017-06-14T00:40:50.576Z,18.40
2017-06-14T00:43:16.880Z,18.30
2017-06-14T00:45:43.958Z,18.20
2017-06-14T00:48:10.269Z,18.20
2017-06-14T00:50:36.610Z,18.20
2017-06-14T00:53:02.915Z,18.10
2017-06-14T00:55:29.968Z,18.00
2017-06-14T00:57:56.331Z,18.00
2017-06-14T01:00:22.639Z,17.90
2017-06-14T01:02:48.980Z,17.90
2017-06-14T01:05:15.290Z,17.80
2017-06-14T01:07:42.355Z,17.70
2017-06-14T01:10:08.650Z,17.70
2017-06-14T01:12:34.983Z,17.70
2017-06-14T01:15:01.316Z,17.60
2017-06-14T01:17:28.390Z,17.50
2017-06-14T01:19:54.716Z,17.50
2017-06-14T01:22:21.035Z,17.50
2017-06-14T01:24:48.111Z,17.40
2017-06-14T01:27:14.417Z,17.40
2017-06-14T01:29:41.479Z,17.30
2017-06-14T01:32:07.796Z,17.30
2017-06-14T01:34:34.905Z,17.30
2017-06-14T01:37:01.257Z,17.20
2017-06-14T01:39:27.603Z,17.20
2017-06-14T01:41:54.686Z,17.20
2017-06-14T01:44:21.073Z,17.10
2017-06-14T01:46:48.176Z,17.10
2017-06-14T01:49:14.527Z,17.10
2017-06-14T01:51:40.865Z,17.10
2017-06-14T01:54:07.177Z,17.00
2017-06-14T01:56:33.513Z,17.00
2017-06-14T01:58:59.832Z,17.00
2017-06-14T02:01:26.176Z,17.00
2017-06-14T02:03:52.506Z,17.00
2017-06-14T02:06:18.840Z,16.90
2017-06-14T02:08:45.163Z,17.00
2017-06-14T02:11:11.497Z,16.90
2017-06-14T02:13:37.824Z,16.90
2017-06-14T02:16:04.168Z,16.90
2017-06-14T02:18:30.499Z,16.80
2017-06-14T02:20:56.849Z,16.80
2017-06-14T02:23:23.931Z,16.80
2017-06-14T02:25:50.229Z,16.80
2017-06-14T02:28:17.319Z,16.80
2017-06-14T02:30:43.646Z,16.70
2017-06-14T02:33:09.997Z,16.80
2017-06-14T02:35:36.310Z,16.70
2017-06-14T02:38:02.619Z,16.60
2017-06-14T02:40:28.955Z,16.60
2017-06-14T02:42:55.274Z,16.50
2017-06-14T02:45:21.599Z,16.50
2017-06-14T02:47:48.660Z,16.50
2017-06-14T02:50:14.995Z,16.50
2017-06-14T02:52:41.310Z,16.50
2017-06-14T02:55:08.395Z,16.40
2017-06-14T02:57:34.708Z,16.40
2017-06-14T03:00:01.043Z,16.40
2017-06-14T03:02:27.360Z,16.40
2017-06-14T03:04:53.706Z,16.40
2017-06-14T03:07:20.015Z,16.40
2017-06-14T03:09:46.332Z,16.30
2017-06-14T03:12:13.400Z,16.30
2017-06-14T03:14:39.708Z,16.30
2017-06-14T03:17:06.810Z,16.30
2017-06-14T03:19:33.180Z,16.30
2017-06-14T03:21:59.506Z,16.30
2017-06-14T03:24:25.816Z,16.30
2017-06-14T03:26:52.156Z,16.30
2017-06-14T03:29:18.465Z,16.20
2017-06-14T03:31:44.793Z,16.20
2017-06-14T03:34:11.101Z,16.20
2017-06-14T03:36:37.424Z,16.20
2017-06-14T03:39:03.799Z,16.20
2017-06-14T03:41:30.156Z,16.30
2017-06-14T03:43:56.464Z,16.30
2017-06-14T03:46:23.519Z,16.20
2017-06-14T03:48:50.599Z,16.20
2017-06-14T03:51:16.905Z,16.10
2017-06-14T03:53:44.030Z,16.10
2017-06-14T03:56:10.343Z,16.10
2017-06-14T03:58:36.686Z,16.10
2017-06-14T04:01:02.997Z,16.00
2017-06-14T04:03:29.330Z,16.00
2017-06-14T04:05:55.644Z,16.00
2017-06-14T04:08:21.976Z,16.00
2017-06-14T04:10:48.308Z,16.00
2017-06-14T04:13:14.606Z,16.00
2017-06-14T04:15:47.888Z,16.00
2017-06-14T04:18:14.943Z,16.00
2017-06-14T04:20:41.258Z,16.00
2017-06-14T04:23:08.326Z,16.10
2017-06-14T04:25:34.657Z,16.00
2017-06-14T04:28:00.974Z,16.10
2017-06-14T04:30:28.060Z,16.10
2017-06-14T04:32:54.366Z,16.10
2017-06-14T04:35:20.703Z,16.20
2017-06-14T04:37:47.009Z,16.20
2017-06-14T04:40:14.097Z,16.30
2017-06-14T04:42:40.414Z,16.30
2017-06-14T04:45:06.728Z,16.30
2017-06-14T04:47:33.050Z,16.40
2017-06-14T04:50:00.105Z,16.50
2017-06-14T04:52:27.172Z,16.50
2017-06-14T04:54:53.479Z,16.50
2017-06-14T04:57:20.601Z,16.60
2017-06-14T04:59:53.902Z,16.50
2017-06-14T05:02:20.235Z,16.60
2017-06-14T05:04:46.544Z,16.60
2017-06-14T05:07:12.891Z,16.60
2017-06-14T05:09:39.208Z,16.70
2017-06-14T05:12:05.513Z,16.70
2017-06-14T05:14:31.846Z,16.70
2017-06-14T05:16:58.182Z,16.70
2017-06-14T05:19:24.516Z,16.70
2017-06-14T05:21:50.847Z,16.70
2017-06-14T05:24:17.186Z,16.70
2017-06-14T05:26:43.505Z,16.80
2017-06-14T05:29:09.843Z,16.80
2017-06-14T05:31:36.164Z,16.80
2017-06-14T05:34:02.557Z,16.90
2017-06-14T05:36:28.872Z,16.90
2017-06-14T05:38:55.929Z,17.00
2017-06-14T05:41:22.988Z,17.10
2017-06-14T05:43:49.311Z,17.00
2017-06-14T05:46:16.382Z,17.10
2017-06-14T05:48:42.703Z,17.10
2017-06-14T05:51:09.045Z,17.20
2017-06-14T05:53:35.346Z,17.30
2017-06-14T05:56:02.423Z,17.40
2017-06-14T05:58:28.739Z,17.40
2017-06-14T06:00:55.089Z,17.40
2017-06-14T06:03:21.409Z,17.50
2017-06-14T06:05:47.759Z,17.60
2017-06-14T06:08:14.104Z,17.70
2017-06-14T06:10:40.412Z,17.70
2017-06-14T06:13:06.748Z,17.80
2017-06-14T06:15:33.080Z,17.80
2017-06-14T06:17:59.413Z,17.90
2017-06-14T06:20:25.736Z,18.00
2017-06-14T06:22:52.069Z,18.10
2017-06-14T06:25:18.390Z,18.10
2017-06-14T06:27:44.733Z,18.20
2017-06-14T06:30:11.062Z,18.20
2017-06-14T06:32:37.403Z,18.30
2017-06-14T06:35:03.719Z,18.40
2017-06-14T06:37:30.052Z,18.40
2017-06-14T06:42:29.524Z,18.50
2017-06-14T06:44:56.580Z,18.60
2017-06-14T06:47:23.636Z,18.70
2017-06-14T06:49:50.726Z,18.70
2017-06-14T06:52:17.036Z,18.70
2017-06-14T06:54:43.368Z,18.80
2017-06-14T06:57:09.711Z,18.90
2017-06-14T06:59:36.061Z,19.00
2017-06-14T07:02:02.382Z,19.00
2017-06-14T07:04:28.732Z,19.10
2017-06-14T07:06:55.054Z,19.10
2017-06-14T07:09:21.395Z,19.20
2017-06-14T07:11:47.714Z,19.30
2017-06-14T07:14:14.090Z,19.40
2017-06-14T07:16:41.208Z,19.50
2017-06-14T07:19:07.571Z,19.50
2017-06-14T07:21:34.627Z,19.60
2017-06-14T07:24:00.941Z,19.60
2017-06-14T07:26:28.045Z,19.70
2017-06-14T07:28:54.376Z,19.60
2017-06-14T07:31:20.714Z,19.70
2017-06-14T07:33:47.048Z,19.80
2017-06-14T07:36:13.380Z,19.80
2017-06-14T07:38:39.695Z,19.80
2017-06-14T07:41:06.045Z,19.90
2017-06-14T07:43:32.381Z,19.90
2017-06-14T07:45:58.724Z,20.00
2017-06-14T07:48:25.037Z,20.00
2017-06-14T07:50:51.369Z,20.10
2017-06-14T07:53:17.684Z,20.10
2017-06-14T07:55:44.027Z,20.20
2017-06-14T07:58:10.344Z,20.20
2017-06-14T08:00:36.693Z,20.20
2017-06-14T08:03:03.018Z,20.30
2017-06-14T08:05:29.339Z,20.40
2017-06-14T08:07:55.688Z,20.50
2017-06-14T08:10:21.998Z,20.60
2017-06-14T08:12:48.340Z,20.70
2017-06-14T08:15:14.676Z,20.70
2017-06-14T08:17:41.012Z,20.80
2017-06-14T08:20:07.333Z,20.90
2017-06-14T08:22:33.665Z,20.90
2017-06-14T08:24:59.986Z,20.90
2017-06-14T08:27:26.322Z,21.00
2017-06-14T08:29:52.628Z,21.00
2017-06-14T08:32:18.969Z,21.00
2017-06-14T08:34:45.288Z,21.00
2017-06-14T08:37:11.633Z,21.10
2017-06-14T08:39:37.948Z,21.20
2017-06-14T08:42:04.313Z,21.20
2017-06-14T08:44:30.620Z,21.30
2017-06-14T08:46:56.931Z,21.50
2017-06-14T08:49:23.263Z,21.50
2017-06-14T08:51:49.579Z,21.60
2017-06-14T08:54:15.915Z,21.60
2017-06-14T08:56:42.237Z,21.70
2017-06-14T08:59:08.567Z,21.80
2017-06-14T09:01:34.880Z,21.90
2017-06-14T09:04:01.960Z,22.10
2017-06-14T09:06:28.276Z,22.10
2017-06-14T09:08:54.625Z,22.20
2017-06-14T09:11:20.952Z,22.20
2017-06-14T09:13:47.274Z,22.30
2017-06-14T09:16:13.626Z,22.30
2017-06-14T09:18:39.944Z,22.20
2017-06-14T09:21:06.293Z,22.30
2017-06-14T09:23:32.604Z,22.30
2017-06-14T09:25:58.949Z,22.40
2017-06-14T09:28:25.263Z,22.40
2017-06-14T09:30:51.600Z,22.40
2017-06-14T09:33:17.919Z,22.40
2017-06-14T09:35:44.285Z,22.40
2017-06-14T09:38:10.617Z,22.40
2017-06-14T09:40:36.935Z,22.50
2017-06-14T09:43:03.273Z,22.50
2017-06-14T09:45:29.589Z,22.50
2017-06-14T09:47:55.925Z,22.50
2017-06-14T09:50:22.253Z,22.50
2017-06-14T09:52:48.602Z,22.60
2017-06-14T09:55:14.921Z,22.60
2017-06-14T09:57:41.261Z,22.60
2017-06-14T10:00:07.599Z,22.60
2017-06-14T10:02:33.920Z,22.60
2017-06-14T10:05:00.257Z,22.70
2017-06-14T10:07:26.567Z,22.70
2017-06-14T10:09:52.914Z,22.70
2017-06-14T10:12:19.228Z,22.80
2017-06-14T10:14:52.636Z,22.80
2017-06-14T10:17:18.977Z,22.90
2017-06-14T10:19:45.317Z,22.90
2017-06-14T10:22:11.632Z,22.90
2017-06-14T10:24:37.969Z,23.00
2017-06-14T10:27:04.278Z,23.00
2017-06-14T10:29:30.632Z,23.10
2017-06-14T10:31:56.959Z,23.10
2017-06-14T10:34:23.270Z,23.20
2017-06-14T10:36:49.602Z,23.30
2017-06-14T10:39:15.914Z,23.30
2017-06-14T10:41:42.281Z,23.30
2017-06-14T10:44:08.615Z,23.40
2017-06-14T10:46:34.951Z,23.40
2017-06-14T10:49:01.268Z,23.40
2017-06-14T10:51:27.601Z,23.50
2017-06-14T10:53:53.917Z,23.50
2017-06-14T10:56:20.265Z,23.60
2017-06-14T10:58:46.591Z,23.60
2017-06-14T11:01:12.944Z,23.60
2017-06-14T11:03:39.260Z,23.70
2017-06-14T11:06:05.571Z,23.70
2017-06-14T11:08:31.898Z,23.70
2017-06-14T11:10:58.221Z,23.70
2017-06-14T11:13:24.557Z,23.80
2017-06-14T11:15:50.900Z,23.80
2017-06-14T11:18:17.240Z,23.80
2017-06-14T11:20:43.582Z,23.90
2017-06-14T11:23:10.659Z,23.90
2017-06-14T11:25:36.975Z,23.90
2017-06-14T11:28:03.320Z,23.90
2017-06-14T11:30:29.640Z,24.00
2017-06-14T11:32:55.980Z,24.00
2017-06-14T11:35:22.307Z,24.00
2017-06-14T11:37:48.665Z,24.00
2017-06-14T11:40:14.979Z,24.00
2017-06-14T11:42:41.297Z,24.00
2017-06-14T11:45:07.632Z,24.10
2017-06-14T11:47:33.952Z,24.10
2017-06-14T11:50:00.297Z,24.10
2017-06-14T11:52:26.613Z,24.20
2017-06-14T11:54:52.960Z,24.20
2017-06-14T11:57:19.281Z,24.20
2017-06-14T11:59:45.630Z,24.20
2017-06-14T12:02:11.950Z,24.20
2017-06-14T12:04:38.296Z,24.20
2017-06-14T12:07:04.613Z,24.20
2017-06-14T12:09:37.951Z,24.20
2017-06-14T12:12:04.270Z,24.20
2017-06-14T12:14:30.610Z,24.20
2017-06-14T12:16:56.952Z,24.30
2017-06-14T12:19:23.268Z,24.30
2017-06-14T12:21:49.611Z,24.30
2017-06-14T12:24:15.933Z,24.30
2017-06-14T12:26:42.293Z,24.30
2017-06-14T12:29:09.351Z,24.30
2017-06-14T12:31:35.695Z,24.30
2017-06-14T12:34:02.009Z,24.30
2017-06-14T12:36:29.093Z,24.50
2017-06-14T12:38:55.420Z,24.50
2017-06-14T12:41:21.756Z,24.50
2017-06-14T12:43:48.083Z,24.50
2017-06-14T12:46:14.414Z,24.50
2017-06-14T12:48:40.727Z,24.50
2017-06-14T12:51:07.045Z,24.50
2017-06-14T12:53:33.387Z,24.50
2017-06-14T12:55:59.701Z,24.50
2017-06-14T12:58:26.767Z,24.50
2017-06-14T13:00:53.134Z,24.50
2017-06-14T13:03:19.481Z,24.50
2017-06-14T13:05:45.804Z,24.50
2017-06-14T13:08:12.140Z,24.50
2017-06-14T13:10:38.454Z,24.50
2017-06-14T13:13:04.792Z,24.50
2017-06-14T13:15:31.128Z,24.60
2017-06-14T13:17:57.469Z,24.70
2017-06-14T13:20:23.791Z,24.70
2017-06-14T13:22:50.148Z,24.70
2017-06-14T13:25:17.215Z,24.70
2017-06-14T13:27:43.533Z,24.70
2017-06-14T13:30:10.617Z,24.70
2017-06-14T13:32:36.937Z,24.70
2017-06-14T13:35:03.279Z,24.70
2017-06-14T13:37:29.606Z,24.70
2017-06-14T13:39:55.940Z,24.70
2017-06-14T13:42:22.267Z,24.70
2017-06-14T13:44:48.598Z,24.80
2017-06-14T13:47:14.930Z,24.80
2017-06-14T13:49:41.278Z,24.90
2017-06-14T13:52:07.598Z,24.90
2017-06-14T13:54:33.942Z,24.80
2017-06-14T13:57:00.289Z,24.90
2017-06-14T13:59:26.598Z,24.90
2017-06-14T14:01:52.935Z,24.80
2017-06-14T14:04:19.243Z,24.80
2017-06-14T14:06:45.586Z,24.90
2017-06-14T14:09:11.904Z,24.90
2017-06-14T14:11:38.236Z,24.90
2017-06-14T14:14:04.555Z,25.00
2017-06-14T14:16:30.911Z,25.00
2017-06-14T14:18:57.237Z,25.00
2017-06-14T14:21:23.584Z,25.00
2017-06-14T14:23:49.904Z,25.10
2017-06-14T14:26:16.269Z,25.10
2017-06-14T14:28:43.324Z,25.10
2017-06-14T14:31:10.383Z,25.00
2017-06-14T14:33:37.468Z,25.00
2017-06-14T14:36:03.794Z,25.00
2017-06-14T14:38:30.145Z,25.00
2017-06-14T14:40:56.466Z,25.00
2017-06-14T14:43:22.804Z,25.00
2017-06-14T14:45:49.131Z,25.00
2017-06-14T14:48:15.477Z,25.00
2017-06-14T14:50:41.797Z,24.90
2017-06-14T14:53:08.133Z,24.90
2017-06-14T14:55:34.453Z,24.90
2017-06-14T14:58:00.796Z,24.90
2017-06-14T15:00:27.121Z,24.90
2017-06-14T15:02:53.490Z,24.90
2017-06-14T15:05:20.541Z,24.80
2017-06-14T15:07:47.596Z,24.80
2017-06-14T15:10:13.937Z,24.80
2017-06-14T15:12:40.260Z,24.80
2017-06-14T15:15:06.628Z,24.80
2017-06-14T15:17:32.981Z,24.80
2017-06-14T15:19:59.332Z,24.90
2017-06-14T15:22:26.388Z,24.90
2017-06-14T15:24:53.479Z,24.90
2017-06-14T15:27:19.797Z,24.80
2017-06-14T15:29:46.144Z,24.90
2017-06-14T15:32:12.470Z,24.90
2017-06-14T15:34:38.811Z,24.80
2017-06-14T15:37:05.124Z,24.80
2017-06-14T15:39:31.457Z,24.80
2017-06-14T15:41:57.794Z,24.80
2017-06-14T15:44:24.105Z,24.80
2017-06-14T15:46:50.435Z,24.80
2017-06-14T15:49:16.755Z,24.80
2017-06-14T15:51:43.104Z,24.70
2017-06-14T15:54:09.420Z,24.80
2017-06-14T15:56:35.758Z,24.70
2017-06-14T15:59:02.081Z,24.70
2017-06-14T16:01:28.412Z,24.70
2017-06-14T16:03:55.088Z,24.70
2017-06-14T16:06:21.413Z,24.70
2017-06-14T16:08:47.733Z,24.70
2017-06-14T16:11:14.093Z,24.70
2017-06-14T16:13:40.417Z,24.70
2017-06-14T16:16:06.759Z,24.70
2017-06-14T16:18:33.111Z,24.70
2017-06-14T16:21:00.173Z,24.70
2017-06-14T16:23:27.260Z,24.70
2017-06-14T16:25:53.581Z,24.60
2017-06-14T16:28:19.919Z,24.70
2017-06-14T16:30:46.240Z,24.60
2017-06-14T16:33:12.577Z,24.60
2017-06-14T16:35:38.899Z,24.60
2017-06-14T16:38:05.239Z,24.60
2017-06-14T16:40:31.557Z,24.50
2017-06-14T16:42:57.919Z,24.50
2017-06-14T16:45:24.240Z,24.50
2017-06-14T16:47:50.556Z,24.50
2017-06-14T16:50:16.894Z,24.50
2017-06-14T16:52:43.218Z,24.40
2017-06-14T16:55:09.570Z,24.40
2017-06-14T16:57:35.886Z,24.40
2017-06-14T17:00:02.228Z,24.40
2017-06-14T17:02:28.546Z,24.40
2017-06-14T17:04:54.888Z,24.40
2017-06-14T17:07:21.196Z,24.40
2017-06-14T17:09:47.544Z,24.40
2017-06-14T17:12:13.860Z,24.40
2017-06-14T17:14:40.197Z,24.30
2017-06-14T17:17:06.538Z,24.30
2017-06-14T17:19:32.893Z,24.30
2017-06-14T17:21:59.212Z,24.30
2017-06-14T17:24:25.533Z,24.30
2017-06-14T17:26:51.893Z,24.30
2017-06-14T17:29:18.213Z,24.30
2017-06-14T17:31:44.554Z,24.30
2017-06-14T17:34:10.873Z,24.30
2017-06-14T17:36:37.213Z,24.30
2017-06-14T17:39:03.572Z,24.30
2017-06-14T17:41:30.645Z,24.30
2017-06-14T17:43:56.957Z,24.20
2017-06-14T17:46:23.301Z,24.20
2017-06-14T17:48:49.627Z,24.20
2017-06-14T17:51:15.992Z,24.20
2017-06-14T17:53:42.307Z,24.20
2017-06-14T17:56:08.629Z,24.20
2017-06-14T17:58:34.960Z,24.20
2017-06-14T18:01:01.288Z,24.10
2017-06-14T18:03:27.630Z,24.10
2017-06-14T18:05:53.936Z,24.10
2017-06-14T18:08:21.091Z,24.10
2017-06-14T18:10:47.413Z,24.00
2017-06-14T18:13:13.753Z,24.00
2017-06-14T18:15:40.100Z,23.90
2017-06-14T18:18:07.083Z,23.90
2017-06-14T18:20:33.408Z,23.90
2017-06-14T18:22:59.720Z,23.80
2017-06-14T18:25:26.060Z,23.80
2017-06-14T18:27:52.374Z,23.80
2017-06-14T18:30:18.727Z,23.70
2017-06-14T18:32:45.048Z,23.70
2017-06-14T18:35:11.381Z,23.60
2017-06-14T18:37:37.692Z,23.60
2017-06-14T18:40:04.037Z,23.60
2017-06-14T18:42:30.357Z,23.50
2017-06-14T18:44:56.729Z,23.50
2017-06-14T18:47:23.050Z,23.50
2017-06-14T18:49:49.379Z,23.40
2017-06-14T18:52:15.721Z,23.40
2017-06-14T18:54:42.040Z,23.40
2017-06-14T18:57:08.385Z,23.30
2017-06-14T18:59:35.450Z,23.30
2017-06-14T19:02:02.524Z,23.20
2017-06-14T19:04:35.901Z,23.20
2017-06-14T19:07:02.236Z,23.20
2017-06-14T19:09:28.555Z,23.10
2017-06-14T19:11:55.641Z,23.10
2017-06-14T19:14:21.964Z,23.10
2017-06-14T19:16:48.339Z,23.10
2017-06-14T19:19:14.659Z,23.00
2017-06-14T19:21:41.030Z,23.00
2017-06-14T19:24:08.129Z,23.00
2017-06-14T19:26:34.523Z,23.00
2017-06-14T19:29:00.865Z,22.90
2017-06-14T19:31:27.184Z,22.90
2017-06-14T19:33:53.564Z,22.90
2017-06-14T19:36:26.006Z,22.80
2017-06-14T19:38:52.343Z,22.80
2017-06-14T19:41:18.668Z,22.70
2017-06-14T19:43:45.002Z,22.70
2017-06-14T19:46:11.335Z,22.60
2017-06-14T19:48:37.689Z,22.60
2017-06-14T19:51:04.002Z,22.60
2017-06-14T19:53:30.344Z,22.50
2017-06-14T19:55:56.661Z,22.50
2017-06-14T19:58:23.005Z,22.50
2017-06-14T20:00:49.317Z,22.50
2017-06-14T20:03:15.679Z,22.40
2017-06-14T20:05:42.003Z,22.40
2017-06-14T20:08:08.365Z,22.40
2017-06-14T20:10:35.476Z,22.30
2017-06-14T20:13:01.827Z,22.30
2017-06-14T20:15:28.179Z,22.20
2017-06-14T20:17:55.231Z,22.20
2017-06-14T20:20:22.306Z,22.20
2017-06-14T20:22:48.630Z,22.20
2017-06-14T20:25:14.973Z,22.10
2017-06-14T20:27:41.288Z,22.10
2017-06-14T20:30:07.646Z,22.10
2017-06-14T20:32:33.957Z,22.00
2017-06-14T20:35:00.310Z,22.00
2017-06-14T20:37:26.633Z,21.90
2017-06-14T20:39:52.951Z,21.90
2017-06-14T20:42:19.297Z,21.90
2017-06-14T20:44:45.604Z,21.80
2017-06-14T20:47:11.948Z,21.80
2017-06-14T20:49:38.264Z,21.70
2017-06-14T20:52:04.596Z,21.70
2017-06-14T20:54:30.909Z,21.70
2017-06-14T20:56:57.241Z,21.60
2017-06-14T20:59:24.295Z,21.50
2017-06-14T21:01:50.625Z,21.50
2017-06-14T21:04:16.970Z,21.50
2017-06-14T21:06:43.308Z,21.50
2017-06-14T21:09:09.624Z,21.40
2017-06-14T21:11:35.972Z,21.40
2017-06-14T21:14:02.285Z,21.40
2017-06-14T21:16:28.646Z,21.40
2017-06-14T21:18:54.969Z,21.30
2017-06-14T21:21:21.292Z,21.30
2017-06-14T21:23:47.636Z,21.30
2017-06-14T21:26:13.947Z,21.30
2017-06-14T21:28:40.288Z,21.30
2017-06-14T21:31:06.610Z,21.20
2017-06-14T21:33:32.953Z,21.20
2017-06-14T21:35:59.271Z,21.20
2017-06-14T21:38:25.602Z,21.20
2017-06-14T21:40:51.928Z,21.10
2017-06-14T21:43:18.272Z,21.10
2017-06-14T21:45:44.625Z,21.10
2017-06-14T21:48:10.943Z,21.00
2017-06-14T21:50:37.330Z,21.00
2017-06-14T21:53:04.394Z,21.00
2017-06-14T21:55:30.748Z,20.90
2017-06-14T21:57:57.059Z,20.90
2017-06-14T22:00:23.392Z,20.90
2017-06-14T22:02:49.706Z,20.90
2017-06-14T22:05:16.039Z,20.90
2017-06-14T22:07:42.356Z,20.90
2017-06-14T22:10:09.439Z,20.80
2017-06-14T22:12:35.774Z,20.80
2017-06-14T22:15:02.115Z,20.80
2017-06-14T22:17:28.454Z,20.80
2017-06-14T22:19:54.772Z,20.70
2017-06-14T22:22:21.103Z,20.70
2017-06-14T22:24:47.425Z,20.70
2017-06-14T22:27:13.760Z,20.70
2017-06-14T22:29:40.077Z,20.60
2017-06-14T22:32:06.410Z,20.60
2017-06-14T22:34:32.736Z,20.60
2017-06-14T22:36:59.084Z,20.50
2017-06-14T22:39:25.408Z,20.50
2017-06-14T22:41:51.758Z,20.50
2017-06-14T22:44:18.107Z,20.40
2017-06-14T22:46:44.469Z,20.40
2017-06-14T22:49:11.532Z,20.30
2017-06-14T22:51:37.848Z,20.30
2017-06-14T22:54:04.913Z,20.20
2017-06-14T22:56:31.230Z,20.20
2017-06-14T22:58:57.574Z,20.20
2017-06-14T23:01:23.884Z,20.10
2017-06-14T23:03:50.969Z,20.10
2017-06-14T23:06:17.292Z,20.10
2017-06-14T23:08:43.624Z,20.00
2017-06-14T23:11:09.935Z,20.00
2017-06-14T23:13:36.269Z,20.00
2017-06-14T23:16:02.608Z,19.90
2017-06-14T23:18:28.969Z,19.90
2017-06-14T23:20:55.289Z,19.80
2017-06-14T23:23:21.615Z,19.80
2017-06-14T23:25:47.951Z,19.80
2017-06-14T23:28:14.261Z,19.80
2017-06-14T23:30:40.589Z,19.70
2017-06-14T23:33:06.904Z,19.70
2017-06-14T23:35:33.249Z,19.70
2017-06-14T23:37:59.566Z,19.60
2017-06-14T23:40:25.953Z,19.60
2017-06-14T23:42:52.256Z,19.60
2017-06-14T23:45:18.599Z,19.50
2017-06-14T23:47:44.925Z,19.50
2017-06-14T23:50:11.268Z,19.50
2017-06-14T23:52:37.611Z,19.50
2017-06-14T23:55:03.930Z,19.40
2017-06-14T23:57:30.269Z,19.40
2017-06-14T23:59:56.585Z,19.40
